createdAt,value
2024-01-26T00:02:07.945Z,92.26
2024-01-26T00:04:36.791Z,92.28
2024-01-26T00:07:07.271Z,93.44
2024-01-26T00:09:36.178Z,93.38
2024-01-26T00:12:05.348Z,92.91
2024-01-26T00:14:34.233Z,93.46
2024-01-26T00:17:03.810Z,93.46
2024-01-26T00:19:32.353Z,92.64
2024-01-26T00:22:01.311Z,93.40
2024-01-26T00:24:30.182Z,93.23
2024-01-26T00:26:58.870Z,93.21
2024-01-26T00:29:27.991Z,94.07
2024-01-26T00:31:56.531Z,94.17
2024-01-26T00:34:25.373Z,93.98
2024-01-26T00:36:54.161Z,93.59
2024-01-26T00:39:22.925Z,93.34
2024-01-26T00:41:51.792Z,93.24
2024-01-26T00:44:20.270Z,92.98
2024-01-26T00:46:49.092Z,93.95
2024-01-26T00:49:17.812Z,93.89
2024-01-26T00:51:46.640Z,92.97
2024-01-26T00:54:15.459Z,93.61
2024-01-26T00:56:44.211Z,93.43
2024-01-26T00:59:13.312Z,93.78
2024-01-26T01:01:42.217Z,93.41
2024-01-26T01:04:11.313Z,94.19
2024-01-26T01:06:40.029Z,94.67
2024-01-26T01:09:08.928Z,94.22
2024-01-26T01:11:37.593Z,93.78
2024-01-26T01:14:06.446Z,94.56
2024-01-26T01:16:35.984Z,94.21
2024-01-26T01:19:05.100Z,93.97
2024-01-26T01:21:33.826Z,94.07
2024-01-26T01:24:03.247Z,94.80
2024-01-26T01:26:32.081Z,94.23
2024-01-26T01:29:00.705Z,94.78
2024-01-26T01:31:29.591Z,94.71
2024-01-26T01:33:58.327Z,93.84
2024-01-26T01:36:27.172Z,94.73
2024-01-26T01:38:55.949Z,93.88
2024-01-26T01:41:24.755Z,93.85
2024-01-26T01:43:57.884Z,94.73
2024-01-26T01:46:26.648Z,94.89
2024-01-26T01:48:55.595Z,93.90
2024-01-26T01:51:25.449Z,94.71
2024-01-26T01:53:54.970Z,94.15
2024-01-26T01:56:25.901Z,94.56
2024-01-26T01:58:55.753Z,93.77
2024-01-26T02:01:24.900Z,94.98
2024-01-26T02:03:53.836Z,95.30
2024-01-26T02:06:22.529Z,95.20
2024-01-26T02:08:51.102Z,95.42
2024-01-26T02:11:19.891Z,94.84
2024-01-26T02:13:48.677Z,94.45
2024-01-26T02:16:17.324Z,95.35
2024-01-26T02:18:46.043Z,95.03
2024-01-26T02:21:14.809Z,95.50
2024-01-26T02:23:45.480Z,94.75
2024-01-26T02:26:14.075Z,95.16
2024-01-26T02:28:42.829Z,95.27
2024-01-26T02:31:11.654Z,94.51
2024-01-26T02:33:40.622Z,94.75
2024-01-26T02:36:10.367Z,94.36
2024-01-26T02:38:39.243Z,94.66
2024-01-26T02:41:07.888Z,95.50
2024-01-26T02:43:36.664Z,94.90
2024-01-26T02:46:11.918Z,95.54
2024-01-26T02:48:44.036Z,94.79
2024-01-26T02:51:12.856Z,94.38
2024-01-26T02:53:42.632Z,94.67
2024-01-26T02:56:11.504Z,95.05
2024-01-26T02:58:40.647Z,95.13
2024-01-26T03:01:09.407Z,94.50
2024-01-26T03:03:38.162Z,94.58
2024-01-26T03:06:08.235Z,94.52
2024-01-26T03:08:37.123Z,95.20
2024-01-26T03:11:06.711Z,95.08
2024-01-26T03:13:35.868Z,95.00
2024-01-26T03:16:05.028Z,95.63
2024-01-26T03:18:34.268Z,94.26
2024-01-26T03:21:03.521Z,95.07
2024-01-26T03:23:32.713Z,95.43
2024-01-26T03:26:01.778Z,95.31
2024-01-26T03:28:31.967Z,95.02
2024-01-26T03:31:00.516Z,95.41
2024-01-26T03:33:29.636Z,94.17
2024-01-26T03:35:58.314Z,94.25
2024-01-26T03:38:27.368Z,94.25
2024-01-26T03:40:55.972Z,93.99
2024-01-26T03:43:24.732Z,94.09
2024-01-26T03:45:53.548Z,94.72
2024-01-26T03:48:22.209Z,93.98
2024-01-26T03:50:50.977Z,94.63
2024-01-26T03:53:19.429Z,94.48
2024-01-26T03:55:48.287Z,94.44
2024-01-26T03:58:16.967Z,94.05
2024-01-26T04:00:45.628Z,94.13
2024-01-26T04:03:14.545Z,94.93
2024-01-26T04:05:43.844Z,95.01
2024-01-26T04:08:16.166Z,94.69
2024-01-26T04:10:45.002Z,94.75
2024-01-26T04:13:13.863Z,93.98
2024-01-26T04:15:42.369Z,94.57
2024-01-26T04:18:11.297Z,94.90
2024-01-26T04:20:40.161Z,93.86
2024-01-26T04:23:08.983Z,94.86
2024-01-26T04:25:37.734Z,93.76
2024-01-26T04:28:07.024Z,93.81
2024-01-26T04:30:36.762Z,94.16
2024-01-26T04:33:06.042Z,94.28
2024-01-26T04:35:34.939Z,94.54
2024-01-26T04:38:06.958Z,94.66
2024-01-26T04:40:35.934Z,94.42
2024-01-26T04:43:04.708Z,93.99
2024-01-26T04:45:33.762Z,94.66
2024-01-26T04:48:02.465Z,94.33
2024-01-26T04:50:31.370Z,93.90
2024-01-26T04:53:00.078Z,94.09
2024-01-26T04:55:30.424Z,94.12
2024-01-26T04:57:59.311Z,94.40
2024-01-26T05:00:28.065Z,93.75
2024-01-26T05:02:56.709Z,93.97
2024-01-26T05:05:25.905Z,93.65
2024-01-26T05:07:54.783Z,94.28
2024-01-26T05:10:23.725Z,94.30
2024-01-26T05:12:52.534Z,94.66
2024-01-26T05:15:21.130Z,93.52
2024-01-26T05:17:50.140Z,94.31
2024-01-26T05:20:18.903Z,94.19
2024-01-26T05:22:48.049Z,93.99
2024-01-26T05:25:17.321Z,94.19
2024-01-26T05:27:46.228Z,94.36
2024-01-26T05:30:15.109Z,94.15
2024-01-26T05:32:46.541Z,93.82
2024-01-26T05:35:15.532Z,93.63
2024-01-26T05:37:47.807Z,93.64
2024-01-26T05:40:17.849Z,93.72
2024-01-26T05:42:46.548Z,93.95
2024-01-26T05:45:17.828Z,93.93
2024-01-26T05:47:46.924Z,94.87
2024-01-26T05:50:17.926Z,94.06
2024-01-26T05:52:46.786Z,94.14
2024-01-26T05:55:16.507Z,94.38
2024-01-26T05:57:45.558Z,94.64
2024-01-26T06:00:18.197Z,93.98
2024-01-26T06:02:47.612Z,94.00
2024-01-26T06:05:16.510Z,94.23
2024-01-26T06:07:45.184Z,93.82
2024-01-26T06:10:14.068Z,93.98
2024-01-26T06:12:42.810Z,94.20
2024-01-26T06:15:12.189Z,93.86
2024-01-26T06:17:41.369Z,94.24
2024-01-26T06:20:10.865Z,94.35
2024-01-26T06:22:39.646Z,93.95
2024-01-26T06:25:08.295Z,93.86
2024-01-26T06:27:37.214Z,94.78
2024-01-26T06:30:09.070Z,94.05
2024-01-26T06:32:37.779Z,94.50
2024-01-26T06:35:07.225Z,94.26
2024-01-26T06:37:35.930Z,93.82
2024-01-26T06:40:05.172Z,94.57
2024-01-26T06:42:34.929Z,94.37
2024-01-26T06:45:03.612Z,94.76
2024-01-26T06:47:32.498Z,94.67
2024-01-26T06:50:01.952Z,95.25
2024-01-26T06:52:30.688Z,94.28
2024-01-26T06:54:59.670Z,94.81
2024-01-26T06:57:28.597Z,95.12
2024-01-26T06:59:57.439Z,94.52
2024-01-26T07:02:26.538Z,95.49
2024-01-26T07:04:55.188Z,95.11
2024-01-26T07:07:24.189Z,95.25
2024-01-26T07:09:52.859Z,94.97
2024-01-26T07:12:21.950Z,94.94
2024-01-26T07:14:50.488Z,94.46
2024-01-26T07:17:19.517Z,94.25
2024-01-26T07:19:48.642Z,94.27
2024-01-26T07:22:17.427Z,94.38
2024-01-26T07:24:46.417Z,94.83
2024-01-26T07:27:15.178Z,95.04
2024-01-26T07:29:44.297Z,94.95
2024-01-26T07:32:13.375Z,94.38
2024-01-26T07:34:42.293Z,94.74
2024-01-26T07:37:11.316Z,94.29
2024-01-26T07:39:40.252Z,94.30
2024-01-26T07:42:09.018Z,94.47
2024-01-26T07:44:38.162Z,94.64
2024-01-26T07:47:07.232Z,94.94
2024-01-26T07:49:36.125Z,95.16
2024-01-26T07:52:05.413Z,95.11
2024-01-26T07:54:34.068Z,94.61
2024-01-26T07:57:04.006Z,94.79
2024-01-26T07:59:32.665Z,94.74
2024-01-26T08:02:01.648Z,94.29
2024-01-26T08:04:30.639Z,94.26
2024-01-26T08:06:59.726Z,93.98
2024-01-26T08:09:28.656Z,94.50
2024-01-26T08:11:57.587Z,94.07
2024-01-26T08:14:27.299Z,94.37
2024-01-26T08:16:56.188Z,94.01
2024-01-26T08:19:26.522Z,94.06
2024-01-26T08:21:57.672Z,94.50
2024-01-26T08:24:26.736Z,94.08
2024-01-26T08:26:55.762Z,93.94
2024-01-26T08:29:28.088Z,93.42
2024-01-26T08:31:56.920Z,93.69
2024-01-26T08:34:26.630Z,94.10
2024-01-26T08:36:55.576Z,93.38
2024-01-26T08:39:24.604Z,93.90
2024-01-26T08:41:53.366Z,93.77
2024-01-26T08:44:22.265Z,93.48
2024-01-26T08:46:53.470Z,93.83
2024-01-26T08:49:22.960Z,93.62
2024-01-26T08:51:53.261Z,93.38
2024-01-26T08:54:22.027Z,93.51
2024-01-26T08:56:50.962Z,93.63
2024-01-26T08:59:19.866Z,93.11
2024-01-26T09:01:48.744Z,93.14
2024-01-26T09:04:18.477Z,93.29
2024-01-26T09:06:50.081Z,93.73
2024-01-26T09:09:24.281Z,93.03
2024-01-26T09:11:53.791Z,93.21
2024-01-26T09:14:22.803Z,93.16
2024-01-26T09:16:54.984Z,93.64
2024-01-26T09:19:24.132Z,93.42
2024-01-26T09:21:52.994Z,93.54
2024-01-26T09:24:22.149Z,93.45
2024-01-26T09:26:51.948Z,92.99
2024-01-26T09:29:20.908Z,92.75
2024-01-26T09:31:50.787Z,93.14
2024-01-26T09:34:19.818Z,93.10
2024-01-26T09:36:48.586Z,93.34
2024-01-26T09:39:17.684Z,93.26
2024-01-26T09:41:46.585Z,93.04
2024-01-26T09:44:15.568Z,93.30
2024-01-26T09:46:45.631Z,92.88
2024-01-26T09:49:14.920Z,92.37
2024-01-26T09:51:44.025Z,92.92
2024-01-26T09:54:14.661Z,91.73
2024-01-26T09:56:44.649Z,91.22
2024-01-26T09:59:13.641Z,90.59
2024-01-26T10:01:43.616Z,90.81
2024-01-26T10:04:12.621Z,90.82
2024-01-26T10:06:41.978Z,90.66
2024-01-26T10:09:14.582Z,90.61
2024-01-26T10:11:43.521Z,90.05
2024-01-26T10:14:22.625Z,90.80
2024-01-26T10:17:01.483Z,90.92
2024-01-26T10:19:31.866Z,90.21
2024-01-26T10:22:02.175Z,90.38
2024-01-26T10:24:32.298Z,90.12
2024-01-26T10:27:01.459Z,90.96
2024-01-26T10:29:30.306Z,91.12
2024-01-26T10:31:59.439Z,90.41
2024-01-26T10:34:30.538Z,90.56
2024-01-26T10:37:06.521Z,90.24
2024-01-26T10:39:41.249Z,90.19
2024-01-26T10:42:10.969Z,88.96
2024-01-26T10:44:41.059Z,90.18
2024-01-26T10:47:10.983Z,90.49
2024-01-26T10:49:41.081Z,89.62
2024-01-26T10:52:11.958Z,89.85
2024-01-26T10:54:41.326Z,90.92
2024-01-26T10:57:10.324Z,90.35
2024-01-26T10:59:42.740Z,90.78
2024-01-26T11:02:16.804Z,90.30
2024-01-26T11:04:46.767Z,90.10
2024-01-26T11:07:19.565Z,90.10
2024-01-26T11:09:51.085Z,90.97
2024-01-26T11:12:25.084Z,90.40
2024-01-26T11:15:11.697Z,90.59
2024-01-26T11:17:46.822Z,90.75
2024-01-26T11:20:36.639Z,91.40
2024-01-26T11:23:11.847Z,91.28
2024-01-26T11:25:43.807Z,90.86
2024-01-26T11:28:18.079Z,90.67
2024-01-26T11:30:59.704Z,90.51
2024-01-26T11:33:37.535Z,91.49
2024-01-26T11:36:08.215Z,91.07
2024-01-26T11:38:37.422Z,91.94
2024-01-26T11:41:07.346Z,90.76
2024-01-26T11:43:48.815Z,92.09
2024-01-26T11:46:19.054Z,90.78
2024-01-26T11:48:52.684Z,90.99
2024-01-26T11:51:22.986Z,91.36
2024-01-26T11:53:52.193Z,90.95
2024-01-26T11:56:21.989Z,92.20
2024-01-26T11:58:51.227Z,91.13
2024-01-26T12:01:26.031Z,91.38
2024-01-26T12:03:55.027Z,91.62
2024-01-26T12:06:23.996Z,92.62
2024-01-26T12:08:53.244Z,92.55
2024-01-26T12:11:22.161Z,91.60
2024-01-26T12:13:51.188Z,92.73
2024-01-26T12:16:24.922Z,92.75
2024-01-26T12:18:56.486Z,92.91
2024-01-26T12:21:30.480Z,92.00
2024-01-26T12:23:59.143Z,92.56
2024-01-26T12:26:28.716Z,92.57
2024-01-26T12:28:57.591Z,92.31
2024-01-26T12:31:29.116Z,92.17
2024-01-26T12:33:58.119Z,92.22
2024-01-26T12:36:33.586Z,92.49
2024-01-26T12:39:03.423Z,92.20
2024-01-26T12:41:33.928Z,92.59
2024-01-26T12:44:03.410Z,92.49
2024-01-26T12:46:32.040Z,92.05
2024-01-26T12:49:01.378Z,92.96
2024-01-26T12:51:30.274Z,92.37
2024-01-26T12:53:59.236Z,92.74
2024-01-26T12:56:29.538Z,92.80
2024-01-26T12:58:58.302Z,92.62
2024-01-26T13:01:26.880Z,93.23
2024-01-26T13:03:56.417Z,92.38
2024-01-26T13:06:25.116Z,92.75
2024-01-26T13:08:54.130Z,92.92
2024-01-26T13:11:22.824Z,92.55
2024-01-26T13:13:51.636Z,92.68
2024-01-26T13:16:20.183Z,92.61
2024-01-26T13:18:49.302Z,93.57
2024-01-26T13:21:19.583Z,93.58
2024-01-26T13:23:51.660Z,93.46
2024-01-26T13:26:20.357Z,93.79
2024-01-26T13:28:49.130Z,93.04
2024-01-26T13:31:18.626Z,92.48
2024-01-26T13:33:47.737Z,93.26
2024-01-26T13:36:17.654Z,92.83
2024-01-26T13:38:46.563Z,92.12
2024-01-26T13:41:17.448Z,92.67
2024-01-26T13:43:50.985Z,91.75
2024-01-26T13:46:20.064Z,91.69
2024-01-26T13:48:49.283Z,91.02
2024-01-26T13:51:18.093Z,91.00
2024-01-26T13:53:47.131Z,90.78
2024-01-26T13:56:17.476Z,91.52
2024-01-26T13:58:46.826Z,91.21
2024-01-26T14:01:16.975Z,92.32
2024-01-26T14:03:46.693Z,91.51
2024-01-26T14:06:15.844Z,91.88
2024-01-26T14:08:44.683Z,91.19
2024-01-26T14:11:13.750Z,91.96
2024-01-26T14:13:42.727Z,91.69
2024-01-26T14:16:12.530Z,91.59
2024-01-26T14:18:41.646Z,92.03
2024-01-26T14:21:10.952Z,91.87
2024-01-26T14:23:40.573Z,91.29
2024-01-26T14:26:12.172Z,91.34
2024-01-26T14:28:41.069Z,91.26
2024-01-26T14:31:09.829Z,90.73
2024-01-26T14:33:38.805Z,90.74
2024-01-26T14:36:07.884Z,89.91
2024-01-26T14:38:36.811Z,90.18
2024-01-26T14:41:05.749Z,89.35
2024-01-26T14:43:35.969Z,89.24
2024-01-26T14:46:07.492Z,89.78
2024-01-26T14:48:40.561Z,90.08
2024-01-26T14:51:12.437Z,90.17
2024-01-26T14:53:41.085Z,89.61
2024-01-26T14:56:10.300Z,90.38
2024-01-26T14:58:39.889Z,90.12
2024-01-26T15:01:08.613Z,89.60
2024-01-26T15:03:38.529Z,89.87
2024-01-26T15:06:07.629Z,89.67
2024-01-26T15:08:36.477Z,89.73
2024-01-26T15:11:05.449Z,89.03
2024-01-26T15:13:35.988Z,89.52
2024-01-26T15:16:05.732Z,90.13
2024-01-26T15:18:34.574Z,89.33
2024-01-26T15:21:03.519Z,89.11
2024-01-26T15:23:32.454Z,89.48
2024-01-26T15:26:01.415Z,90.21
2024-01-26T15:28:30.009Z,89.22
2024-01-26T15:30:58.804Z,90.03
2024-01-26T15:33:27.981Z,90.52
2024-01-26T15:35:58.312Z,89.46
2024-01-26T15:38:26.873Z,90.68
2024-01-26T15:40:55.749Z,89.10
2024-01-26T15:43:24.671Z,90.14
2024-01-26T15:45:53.416Z,89.20
2024-01-26T15:48:22.239Z,89.35
2024-01-26T15:50:53.095Z,90.72
2024-01-26T15:53:21.752Z,90.42
2024-01-26T15:55:50.587Z,89.73
2024-01-26T15:58:18.967Z,89.28
2024-01-26T16:00:50.825Z,89.91
2024-01-26T16:03:19.715Z,89.20
2024-01-26T16:05:51.142Z,89.78
2024-01-26T16:08:19.945Z,89.46
2024-01-26T16:10:48.691Z,88.83
2024-01-26T16:13:17.457Z,88.92
2024-01-26T16:15:47.059Z,88.90
2024-01-26T16:18:15.935Z,89.84
2024-01-26T16:20:44.588Z,89.36
2024-01-26T16:23:13.384Z,89.18
2024-01-26T16:25:44.887Z,89.65
2024-01-26T16:28:13.769Z,89.17
2024-01-26T16:30:42.598Z,89.55
2024-01-26T16:33:13.664Z,88.99
2024-01-26T16:35:42.340Z,88.61
2024-01-26T16:38:13.129Z,89.51
2024-01-26T16:40:42.316Z,88.99
2024-01-26T16:43:12.961Z,88.47
2024-01-26T16:45:42.105Z,89.32
2024-01-26T16:48:10.844Z,89.17
2024-01-26T16:50:39.726Z,89.37
2024-01-26T16:53:08.499Z,88.63
2024-01-26T16:55:37.460Z,89.51
2024-01-26T16:58:06.061Z,88.92
2024-01-26T17:00:34.860Z,89.07
2024-01-26T17:03:03.959Z,88.77
2024-01-26T17:05:35.352Z,88.79
2024-01-26T17:08:04.815Z,88.51
2024-01-26T17:10:33.598Z,88.55
2024-01-26T17:13:05.864Z,89.14
2024-01-26T17:15:34.552Z,88.63
2024-01-26T17:18:03.685Z,88.96
2024-01-26T17:20:32.286Z,88.82
2024-01-26T17:23:01.340Z,88.82
2024-01-26T17:25:29.971Z,89.10
2024-01-26T17:27:58.679Z,88.89
2024-01-26T17:30:27.563Z,88.51
2024-01-26T17:33:03.268Z,88.26
2024-01-26T17:35:32.519Z,88.62
2024-01-26T17:38:01.107Z,88.66
2024-01-26T17:40:29.683Z,88.24
2024-01-26T17:42:58.357Z,88.48
2024-01-26T17:45:30.438Z,88.80
2024-01-26T17:47:59.198Z,88.11
2024-01-26T17:50:27.756Z,87.88
2024-01-26T17:52:56.551Z,88.22
2024-01-26T17:55:25.491Z,88.74
2024-01-26T17:57:54.097Z,87.84
2024-01-26T18:00:22.735Z,87.39
2024-01-26T18:02:51.558Z,88.04
2024-01-26T18:05:23.742Z,87.83
2024-01-26T18:07:54.536Z,87.70
2024-01-26T18:10:24.084Z,87.78
2024-01-26T18:12:52.686Z,87.48
2024-01-26T18:15:21.533Z,87.62
2024-01-26T18:17:50.262Z,88.24
2024-01-26T18:20:19.958Z,87.17
2024-01-26T18:22:48.860Z,87.72
2024-01-26T18:25:19.746Z,87.41
2024-01-26T18:27:48.496Z,87.56
2024-01-26T18:30:20.062Z,87.74
2024-01-26T18:32:49.011Z,87.67
2024-01-26T18:35:17.996Z,88.13
2024-01-26T18:37:46.836Z,87.42
2024-01-26T18:40:15.704Z,87.51
2024-01-26T18:42:44.303Z,87.01
2024-01-26T18:45:15.601Z,88.24
2024-01-26T18:47:44.157Z,87.64
2024-01-26T18:50:12.917Z,86.85
2024-01-26T18:52:41.857Z,87.60
2024-01-26T18:55:14.155Z,87.42
2024-01-26T18:57:44.271Z,87.24
2024-01-26T19:00:14.313Z,87.90
2024-01-26T19:02:43.415Z,87.71
2024-01-26T19:05:14.766Z,86.95
2024-01-26T19:07:45.497Z,87.98
2024-01-26T19:10:15.547Z,87.77
2024-01-26T19:12:45.575Z,86.89
2024-01-26T19:15:15.823Z,87.02
2024-01-26T19:17:44.849Z,87.34
2024-01-26T19:20:15.680Z,87.65
2024-01-26T19:22:44.415Z,87.91
2024-01-26T19:25:13.799Z,86.86
2024-01-26T19:27:43.234Z,87.45
2024-01-26T19:30:12.348Z,87.77
2024-01-26T19:32:41.191Z,87.50
2024-01-26T19:35:10.459Z,87.72
2024-01-26T19:37:39.711Z,87.55
2024-01-26T19:40:09.765Z,87.98
2024-01-26T19:42:38.473Z,86.85
2024-01-26T19:45:07.994Z,86.90
2024-01-26T19:47:37.124Z,87.50
2024-01-26T19:50:09.775Z,87.75
2024-01-26T19:52:40.368Z,87.58
2024-01-26T19:55:10.568Z,87.55
2024-01-26T19:57:41.834Z,87.61
2024-01-26T20:00:11.679Z,86.90
2024-01-26T20:02:40.402Z,86.35
2024-01-26T20:05:11.075Z,87.06
2024-01-26T20:07:40.464Z,87.34
2024-01-26T20:10:12.441Z,86.54
2024-01-26T20:12:41.656Z,87.43
2024-01-26T20:15:11.684Z,87.53
2024-01-26T20:17:40.962Z,87.58
2024-01-26T20:20:11.526Z,87.27
2024-01-26T20:22:43.211Z,87.69
2024-01-26T20:25:13.655Z,87.15
2024-01-26T20:27:42.619Z,86.53
2024-01-26T20:30:11.676Z,87.61
2024-01-26T20:32:40.618Z,87.31
2024-01-26T20:35:10.368Z,86.91
2024-01-26T20:37:39.280Z,86.28
2024-01-26T20:40:09.318Z,86.68
2024-01-26T20:42:38.155Z,87.26
2024-01-26T20:45:07.450Z,86.93
2024-01-26T20:47:36.441Z,87.17
2024-01-26T20:50:08.452Z,86.76
2024-01-26T20:52:37.498Z,86.22
2024-01-26T20:55:06.815Z,87.58
2024-01-26T20:57:35.604Z,87.36
2024-01-26T21:00:05.743Z,86.75
2024-01-26T21:02:34.421Z,87.68
2024-01-26T21:05:03.216Z,87.24
2024-01-26T21:07:31.873Z,86.17
2024-01-26T21:10:00.746Z,86.83
2024-01-26T21:12:29.355Z,86.93
2024-01-26T21:14:58.271Z,87.87
2024-01-26T21:17:26.899Z,87.67
2024-01-26T21:19:55.844Z,87.20
2024-01-26T21:22:24.417Z,87.18
2024-01-26T21:24:53.277Z,87.26
2024-01-26T21:27:21.905Z,87.17
2024-01-26T21:29:53.566Z,87.09
2024-01-26T21:32:22.701Z,86.45
2024-01-26T21:34:52.208Z,86.67
2024-01-26T21:37:21.257Z,87.07
2024-01-26T21:39:50.157Z,86.22
2024-01-26T21:42:19.190Z,87.20
2024-01-26T21:44:48.307Z,86.84
2024-01-26T21:47:18.297Z,86.24
2024-01-26T21:49:47.111Z,86.16
2024-01-26T21:52:16.478Z,86.69
2024-01-26T21:54:45.262Z,87.25
2024-01-26T21:57:14.563Z,86.91
2024-01-26T21:59:43.340Z,87.04
2024-01-26T22:02:12.166Z,86.43
2024-01-26T22:04:40.936Z,86.44
2024-01-26T22:07:09.699Z,86.69
2024-01-26T22:09:38.624Z,87.24
2024-01-26T22:12:07.917Z,86.52
2024-01-26T22:14:36.762Z,87.48
2024-01-26T22:17:05.582Z,86.80
2024-01-26T22:19:34.484Z,86.88
2024-01-26T22:22:03.917Z,87.22
2024-01-26T22:24:32.815Z,86.67
2024-01-26T22:27:01.716Z,86.90
2024-01-26T22:29:30.594Z,86.90
2024-01-26T22:31:59.297Z,87.12
2024-01-26T22:34:28.161Z,86.10
2024-01-26T22:36:57.096Z,86.44
2024-01-26T22:39:25.775Z,86.70
2024-01-26T22:41:55.488Z,87.37
2024-01-26T22:44:24.513Z,87.40
2024-01-26T22:46:53.314Z,86.94
2024-01-26T22:49:22.789Z,87.37
2024-01-26T22:51:51.980Z,87.60
2024-01-26T22:54:20.670Z,87.47
2024-01-26T22:56:52.041Z,86.58
2024-01-26T22:59:20.771Z,86.64
2024-01-26T23:01:52.294Z,87.11
2024-01-26T23:04:21.127Z,86.96
2024-01-26T23:06:50.991Z,86.30
2024-01-26T23:09:19.996Z,87.36
2024-01-26T23:11:48.822Z,86.77
2024-01-26T23:14:17.795Z,87.11
2024-01-26T23:16:46.377Z,86.22
2024-01-26T23:19:20.289Z,87.15
2024-01-26T23:21:49.457Z,86.91
2024-01-26T23:24:18.344Z,87.33
2024-01-26T23:26:47.009Z,86.69
2024-01-26T23:29:16.035Z,87.11
2024-01-26T23:31:45.257Z,86.90
2024-01-26T23:34:15.186Z,86.63
2024-01-26T23:36:44.088Z,86.08
2024-01-26T23:39:12.813Z,85.98
2024-01-26T23:41:41.529Z,85.77
2024-01-26T23:44:10.273Z,85.96
2024-01-26T23:46:39.116Z,86.07
2024-01-26T23:49:08.167Z,86.55
2024-01-26T23:51:36.854Z,87.00
2024-01-26T23:54:05.957Z,86.60
2024-01-26T23:56:34.669Z,86.54
2024-01-26T23:59:03.654Z,87.01
